Terminal Aerodrome Forecast
Issued by NWS

Home | Current Version | Previous Version | Text Only | Print | Product List | Glossary On
Versions: 1 2 3 4 5 6 7 8 9 10 11 12 13 14 15 16 17 18 19 20 21 22 23 24
000
FTUS45 KGJT 282320
TAFVEL
TAF
KVEL 282320Z 2900/2924 00000KT P6SM SCT120
     FM291800 17005KT P6SM BKN120
     FM291900 18006KT P6SM VCTS SCT080CB BKN200
     FM292300 23007KT P6SM VCTS SCT100CB BKN250=

USA.gov is the U.S. government's official web portal to all federal, state and local government web resources and services.